Terminal Aerodrome Forecast
Issued by NWS

Home | Current Version | Previous Version | Text Only | Print | Product List | Glossary On
Versions: 1 2 3 4 5 6 7 8 9 10 11 12 13 14 15
000
FTUS44 KCRP 310526
TAFALI
TAF
KALI 310526Z 3106/0106 14005KT P6SM SCT018 BKN035
      TEMPO 3109/3113 BKN015
     FM311600 15013KT P6SM VCTS BKN035CB PROB30 3118/3124 TSRA
      BKN025CB
     FM010200 13008KT P6SM SCT020=

USA.gov is the U.S. government's official web portal to all federal, state and local government web resources and services.